JAS2727 FAGM-FALA
Flight info
| Callsign | JAS2727 |
|---|---|
| Flight time | N/A |
| Altitude | 9000 |
| Route | FAGM/29 DCT |
| Aircraft | SF50/L-VGD/A |
Departure
| Time | 2026-04-25 10:28 |
|---|---|
| Airport | Rand Airport (FAGM) |
Arrival
| Time | N/A |
|---|---|
| Airport | Lanseria International Airport (FALA) |
| Time | Latitude | Longitude | Altitude | Speed | Heading |
|---|---|---|---|---|---|
| 2026-04-25 10:28 | -26.17303 | 27.90758 | 7538 ft | 231 kts | 278° |
| 2026-04-25 10:28 | -26.17197 | 27.89901 | 7727 ft | 222 kts | 278° |
| 2026-04-25 10:29 | -26.16831 | 27.87540 | 7927 ft | 220 kts | 283° |
| 2026-04-25 10:29 | -26.16677 | 27.86725 | 8012 ft | 204 kts | 282° |
| 2026-04-25 10:29 | -26.16550 | 27.85882 | 7976 ft | 199 kts | 279° |
| 2026-04-25 10:30 | -26.16467 | 27.85121 | 8092 ft | 188 kts | 278° |
| 2026-04-25 10:30 | -26.16275 | 27.83504 | 8094 ft | 183 kts | 284° |
| 2026-04-25 10:30 | -26.16079 | 27.82771 | 7972 ft | 188 kts | 289° |
| 2026-04-25 10:31 | -26.15523 | 27.81557 | 7681 ft | 195 kts | 312° |
| 2026-04-25 10:31 | -26.14978 | 27.81026 | 7578 ft | 193 kts | 330° |
| 2026-04-25 10:32 | -26.13621 | 27.80431 | 7042 ft | 188 kts | 352° |
| 2026-04-25 10:32 | -26.12928 | 27.80344 | 6848 ft | 184 kts | 357° |
| 2026-04-25 10:32 | -26.11588 | 27.80419 | 6659 ft | 168 kts | 8° |
| 2026-04-25 10:33 | -26.10946 | 27.80537 | 6548 ft | 164 kts | 9° |
| 2026-04-25 10:33 | -26.10290 | 27.80713 | 6514 ft | 156 kts | 16° |
| 2026-04-25 10:33 | -26.09722 | 27.80976 | 6477 ft | 152 kts | 25° |
| 2026-04-25 10:34 | -26.08582 | 27.81753 | 6423 ft | 147 kts | 26° |
| 2026-04-25 10:34 | -26.08012 | 27.82019 | 6512 ft | 147 kts | 16° |
| 2026-04-25 10:34 | -26.06748 | 27.82344 | 6765 ft | 143 kts | 9° |
| 2026-04-25 10:35 | -26.06078 | 27.82481 | 6706 ft | 155 kts | 8° |
| 2026-04-25 10:35 | -26.04691 | 27.82725 | 6620 ft | 167 kts | 6° |
| 2026-04-25 10:35 | -26.03929 | 27.82796 | 6645 ft | 167 kts | 3° |
| 2026-04-25 10:36 | -26.03160 | 27.82858 | 6639 ft | 169 kts | 3° |
| 2026-04-25 10:36 | -26.02400 | 27.83015 | 6604 ft | 169 kts | 23° |
| 2026-04-25 10:36 | -26.01081 | 27.84222 | 6126 ft | 187 kts | 41° |
| 2026-04-25 10:37 | -25.99919 | 27.85378 | 5984 ft | 142 kts | 40° |
| 2026-04-25 10:37 | -25.99476 | 27.85859 | 5805 ft | 132 kts | 42° |
| 2026-04-25 10:37 | -25.99128 | 27.86281 | 5620 ft | 130 kts | 46° |
| 2026-04-25 10:38 | -25.98741 | 27.86766 | 5399 ft | 130 kts | 46° |
| 2026-04-25 10:38 | -25.97674 | 27.88111 | 5032 ft | 124 kts | 43° |
| 2026-04-25 10:39 | -25.97306 | 27.88534 | 5033 ft | 116 kts | 42° |
| 2026-04-25 10:39 | -25.96243 | 27.89826 | 4881 ft | 121 kts | 47° |
| 2026-04-25 10:40 | -25.95896 | 27.90270 | 4855 ft | 119 kts | 45° |